Pine Hills, Florida
Current Conditions -  °F | °C
As of 8:53 AM on Thursday 30 Oct 2014 (Local Time) from KORL Reporting Station
Scattered Clouds Scattered Clouds  
Wind Chill: 22°   Ceiling: Unl
Heat Index: 22°   Visibility: 10mi
Dew Point: 19°   Wind: 3mph
Humidity: 84%   Direction: 330°NNW
Pressure: 29.99"   Gusts: NA
Location:  28.55°N, 81.45°W
Report Text: KORL 301253Z 33003KT 10SM SCT120 22/19 A2999 RMK AO2 SLP160 T02170189
Loading
Personal Weather Stations






























Interactive Weather Map
Tropical Storm Tracking
New forecast layout! Learn more

10-Day Weather Forecast

Advertisements
Track Severe Weather on mobile